sensor_id;sensor_type;location;lat;lon;timestamp;temperature;humidity
23715;DHT22;12036;50.858;4.472;2023-04-24T00:00:08;10.00;99.90
23715;DHT22;12036;50.858;4.472;2023-04-24T00:02:44;10.00;99.90
23715;DHT22;12036;50.858;4.472;2023-04-24T00:05:13;9.90;99.90
23715;DHT22;12036;50.858;4.472;2023-04-24T00:07:43;9.70;99.90
23715;DHT22;12036;50.858;4.472;2023-04-24T00:10:10;9.70;99.90
23715;DHT22;12036;50.858;4.472;2023-04-24T00:12:36;9.80;99.90
23715;DHT22;12036;50.858;4.472;2023-04-24T00:15:03;9.70;99.90
23715;DHT22;12036;50.858;4.472;2023-04-24T00:17:28;9.80;99.90
23715;DHT22;12036;50.858;4.472;2023-04-24T00:19:54;9.90;99.90
23715;DHT22;12036;50.858;4.472;2023-04-24T00:22:28;9.90;99.90
23715;DHT22;12036;50.858;4.472;2023-04-24T00:24:54;9.80;99.90
23715;DHT22;12036;50.858;4.472;2023-04-24T00:27:20;9.70;99.90
23715;DHT22;12036;50.858;4.472;2023-04-24T00:29:46;9.50;99.90
23715;DHT22;12036;50.858;4.472;2023-04-24T00:32:11;9.50;99.90
23715;DHT22;12036;50.858;4.472;2023-04-24T00:34:37;9.50;99.90
23715;DHT22;12036;50.858;4.472;2023-04-24T00:37:02;9.40;99.90
23715;DHT22;12036;50.858;4.472;2023-04-24T00:39:28;9.30;99.90
23715;DHT22;12036;50.858;4.472;2023-04-24T00:41:54;9.20;99.90
23715;DHT22;12036;50.858;4.472;2023-04-24T00:44:20;9.20;99.90
23715;DHT22;12036;50.858;4.472;2023-04-24T00:46:47;9.20;99.90
23715;DHT22;12036;50.858;4.472;2023-04-24T00:49:18;9.20;99.90
23715;DHT22;12036;50.858;4.472;2023-04-24T00:51:43;9.20;99.90
23715;DHT22;12036;50.858;4.472;2023-04-24T00:54:12;9.10;99.90
23715;DHT22;12036;50.858;4.472;2023-04-24T00:56:38;9.10;99.90
23715;DHT22;12036;50.858;4.472;2023-04-24T00:59:03;9.10;99.90
23715;DHT22;12036;50.858;4.472;2023-04-24T01:01:29;9.10;99.90
23715;DHT22;12036;50.858;4.472;2023-04-24T01:03:56;9.10;99.90
23715;DHT22;12036;50.858;4.472;2023-04-24T01:06:23;9.00;99.90
23715;DHT22;12036;50.858;4.472;2023-04-24T01:08:52;8.90;99.90
23715;DHT22;12036;50.858;4.472;2023-04-24T01:11:19;9.00;99.90
23715;DHT22;12036;50.858;4.472;2023-04-24T01:13:45;9.00;99.90
23715;DHT22;12036;50.858;4.472;2023-04-24T01:16:11;9.10;99.90
23715;DHT22;12036;50.858;4.472;2023-04-24T01:18:37;9.10;99.90
23715;DHT22;12036;50.858;4.472;2023-04-24T01:21:04;9.10;99.90
23715;DHT22;12036;50.858;4.472;2023-04-24T01:23:30;9.00;99.90
23715;DHT22;12036;50.858;4.472;2023-04-24T01:25:55;9.10;99.90
23715;DHT22;12036;50.858;4.472;2023-04-24T01:28:21;9.00;99.90
23715;DHT22;12036;50.858;4.472;2023-04-24T01:30:47;9.00;99.90
23715;DHT22;12036;50.858;4.472;2023-04-24T01:33:13;9.00;99.90
23715;DHT22;12036;50.858;4.472;2023-04-24T01:35:40;9.00;99.90
23715;DHT22;12036;50.858;4.472;2023-04-24T01:38:05;8.90;99.90
23715;DHT22;12036;50.858;4.472;2023-04-24T01:40:32;8.90;99.90
23715;DHT22;12036;50.858;4.472;2023-04-24T01:42:58;8.90;99.90
23715;DHT22;12036;50.858;4.472;2023-04-24T01:45:24;8.90;99.90
23715;DHT22;12036;50.858;4.472;2023-04-24T01:47:50;8.80;99.90
23715;DHT22;12036;50.858;4.472;2023-04-24T01:50:16;8.70;99.90
23715;DHT22;12036;50.858;4.472;2023-04-24T01:52:42;8.80;99.90
23715;DHT22;12036;50.858;4.472;2023-04-24T01:55:08;8.80;99.90
23715;DHT22;12036;50.858;4.472;2023-04-24T01:57:34;8.80;99.90
23715;DHT22;12036;50.858;4.472;2023-04-24T02:00:00;8.90;99.90
23715;DHT22;12036;50.858;4.472;2023-04-24T02:02:26;8.90;99.90
23715;DHT22;12036;50.858;4.472;2023-04-24T02:04:55;9.00;99.90
23715;DHT22;12036;50.858;4.472;2023-04-24T02:07:20;9.00;99.90
23715;DHT22;12036;50.858;4.472;2023-04-24T02:09:46;9.00;99.90
23715;DHT22;12036;50.858;4.472;2023-04-24T02:12:12;8.90;99.90
23715;DHT22;12036;50.858;4.472;2023-04-24T02:14:37;8.90;99.90
23715;DHT22;12036;50.858;4.472;2023-04-24T02:17:03;8.90;99.90
23715;DHT22;12036;50.858;4.472;2023-04-24T02:19:30;8.90;99.90
23715;DHT22;12036;50.858;4.472;2023-04-24T02:21:56;8.90;99.90
23715;DHT22;12036;50.858;4.472;2023-04-24T02:24:21;8.90;99.90
23715;DHT22;12036;50.858;4.472;2023-04-24T02:26:47;9.00;99.90
23715;DHT22;12036;50.858;4.472;2023-04-24T02:29:12;9.00;99.90
23715;DHT22;12036;50.858;4.472;2023-04-24T02:31:38;8.90;99.90
23715;DHT22;12036;50.858;4.472;2023-04-24T02:34:04;8.90;99.90
23715;DHT22;12036;50.858;4.472;2023-04-24T02:36:29;8.80;99.90
23715;DHT22;12036;50.858;4.472;2023-04-24T02:38:55;8.90;99.90
23715;DHT22;12036;50.858;4.472;2023-04-24T02:41:21;9.00;99.90
23715;DHT22;12036;50.858;4.472;2023-04-24T02:43:47;9.00;99.90
23715;DHT22;12036;50.858;4.472;2023-04-24T02:46:12;8.90;99.90
23715;DHT22;12036;50.858;4.472;2023-04-24T02:48:38;8.90;99.90
23715;DHT22;12036;50.858;4.472;2023-04-24T02:51:04;8.90;99.90
23715;DHT22;12036;50.858;4.472;2023-04-24T02:53:29;8.80;99.90
23715;DHT22;12036;50.858;4.472;2023-04-24T02:55:56;8.80;99.90
23715;DHT22;12036;50.858;4.472;2023-04-24T02:58:22;8.80;99.90
23715;DHT22;12036;50.858;4.472;2023-04-24T03:00:47;8.70;99.90
23715;DHT22;12036;50.858;4.472;2023-04-24T03:03:13;8.70;99.90
23715;DHT22;12036;50.858;4.472;2023-04-24T03:05:40;8.70;99.90
23715;DHT22;12036;50.858;4.472;2023-04-24T03:08:06;8.70;99.90
23715;DHT22;12036;50.858;4.472;2023-04-24T03:10:32;8.70;99.90
23715;DHT22;12036;50.858;4.472;2023-04-24T03:12:58;8.80;99.90
23715;DHT22;12036;50.858;4.472;2023-04-24T03:15:24;8.80;99.90
23715;DHT22;12036;50.858;4.472;2023-04-24T03:17:49;8.80;99.90
23715;DHT22;12036;50.858;4.472;2023-04-24T03:20:15;8.60;99.90
23715;DHT22;12036;50.858;4.472;2023-04-24T03:22:41;8.60;99.90
23715;DHT22;12036;50.858;4.472;2023-04-24T03:25:07;8.60;99.90
23715;DHT22;12036;50.858;4.472;2023-04-24T03:27:34;8.70;99.90
23715;DHT22;12036;50.858;4.472;2023-04-24T03:30:00;8.80;99.90
23715;DHT22;12036;50.858;4.472;2023-04-24T03:32:26;8.80;99.90
23715;DHT22;12036;50.858;4.472;2023-04-24T03:34:52;8.70;99.90
23715;DHT22;12036;50.858;4.472;2023-04-24T03:37:17;8.70;99.90
23715;DHT22;12036;50.858;4.472;2023-04-24T03:39:43;8.80;99.90
23715;DHT22;12036;50.858;4.472;2023-04-24T03:42:09;8.90;99.90
23715;DHT22;12036;50.858;4.472;2023-04-24T03:44:35;8.80;99.90
23715;DHT22;12036;50.858;4.472;2023-04-24T03:47:01;8.70;99.90
23715;DHT22;12036;50.858;4.472;2023-04-24T03:49:27;8.70;99.90
23715;DHT22;12036;50.858;4.472;2023-04-24T03:51:52;8.80;99.90
23715;DHT22;12036;50.858;4.472;2023-04-24T03:54:19;8.70;99.90
23715;DHT22;12036;50.858;4.472;2023-04-24T03:56:44;8.90;99.90
23715;DHT22;12036;50.858;4.472;2023-04-24T03:59:10;8.90;99.90
23715;DHT22;12036;50.858;4.472;2023-04-24T04:01:36;8.90;99.90
23715;DHT22;12036;50.858;4.472;2023-04-24T04:04:03;8.80;99.90
23715;DHT22;12036;50.858;4.472;2023-04-24T04:06:29;8.80;99.90
23715;DHT22;12036;50.858;4.472;2023-04-24T04:08:56;8.80;99.90
23715;DHT22;12036;50.858;4.472;2023-04-24T04:11:22;8.80;99.90
23715;DHT22;12036;50.858;4.472;2023-04-24T04:13:48;8.80;99.90
23715;DHT22;12036;50.858;4.472;2023-04-24T04:16:14;8.80;99.90
23715;DHT22;12036;50.858;4.472;2023-04-24T04:18:42;8.80;99.90
23715;DHT22;12036;50.858;4.472;2023-04-24T04:21:07;8.80;99.90
23715;DHT22;12036;50.858;4.472;2023-04-24T04:23:33;8.80;99.90
23715;DHT22;12036;50.858;4.472;2023-04-24T04:25:59;8.90;99.90
23715;DHT22;12036;50.858;4.472;2023-04-24T04:28:25;9.00;99.90
23715;DHT22;12036;50.858;4.472;2023-04-24T04:30:51;9.00;99.90
23715;DHT22;12036;50.858;4.472;2023-04-24T04:33:21;9.00;99.90
23715;DHT22;12036;50.858;4.472;2023-04-24T04:35:47;9.10;99.90
23715;DHT22;12036;50.858;4.472;2023-04-24T04:38:15;9.10;99.90
23715;DHT22;12036;50.858;4.472;2023-04-24T04:40:41;9.20;99.90
23715;DHT22;12036;50.858;4.472;2023-04-24T04:43:07;9.20;99.90
23715;DHT22;12036;50.858;4.472;2023-04-24T04:45:33;9.20;99.90
23715;DHT22;12036;50.858;4.472;2023-04-24T04:48:00;9.20;99.90
23715;DHT22;12036;50.858;4.472;2023-04-24T04:50:27;9.20;99.90
23715;DHT22;12036;50.858;4.472;2023-04-24T04:52:53;9.10;99.90
23715;DHT22;12036;50.858;4.472;2023-04-24T04:55:18;9.10;99.90
23715;DHT22;12036;50.858;4.472;2023-04-24T04:57:47;9.10;99.90
23715;DHT22;12036;50.858;4.472;2023-04-24T05:00:13;9.00;99.90
23715;DHT22;12036;50.858;4.472;2023-04-24T05:02:39;9.10;99.90
23715;DHT22;12036;50.858;4.472;2023-04-24T05:05:06;9.10;99.90
23715;DHT22;12036;50.858;4.472;2023-04-24T05:07:32;9.10;99.90
23715;DHT22;12036;50.858;4.472;2023-04-24T05:09:58;9.00;99.90
23715;DHT22;12036;50.858;4.472;2023-04-24T05:12:23;9.00;99.90
23715;DHT22;12036;50.858;4.472;2023-04-24T05:14:49;8.90;99.90
23715;DHT22;12036;50.858;4.472;2023-04-24T05:17:15;8.90;99.90
23715;DHT22;12036;50.858;4.472;2023-04-24T05:19:41;8.90;99.90
23715;DHT22;12036;50.858;4.472;2023-04-24T05:22:07;8.90;99.90
23715;DHT22;12036;50.858;4.472;2023-04-24T05:24:35;8.90;99.90
23715;DHT22;12036;50.858;4.472;2023-04-24T05:27:04;8.80;99.90
23715;DHT22;12036;50.858;4.472;2023-04-24T05:29:32;8.80;99.90
23715;DHT22;12036;50.858;4.472;2023-04-24T05:31:58;8.80;99.90
23715;DHT22;12036;50.858;4.472;2023-04-24T05:34:24;8.80;99.90
23715;DHT22;12036;50.858;4.472;2023-04-24T05:36:50;8.80;99.90
23715;DHT22;12036;50.858;4.472;2023-04-24T05:39:16;8.80;99.90
23715;DHT22;12036;50.858;4.472;2023-04-24T05:41:42;8.80;99.90
23715;DHT22;12036;50.858;4.472;2023-04-24T05:44:08;8.80;99.90
23715;DHT22;12036;50.858;4.472;2023-04-24T05:46:34;8.70;99.90
23715;DHT22;12036;50.858;4.472;2023-04-24T05:49:00;8.70;99.90
23715;DHT22;12036;50.858;4.472;2023-04-24T05:51:25;8.70;99.90
23715;DHT22;12036;50.858;4.472;2023-04-24T05:53:51;8.70;99.90
23715;DHT22;12036;50.858;4.472;2023-04-24T05:56:17;8.70;99.90
23715;DHT22;12036;50.858;4.472;2023-04-24T05:58:45;8.60;99.90
23715;DHT22;12036;50.858;4.472;2023-04-24T06:01:11;8.70;99.90
23715;DHT22;12036;50.858;4.472;2023-04-24T06:03:38;8.70;99.90
23715;DHT22;12036;50.858;4.472;2023-04-24T06:06:06;8.60;99.90
23715;DHT22;12036;50.858;4.472;2023-04-24T06:08:31;8.60;99.90
23715;DHT22;12036;50.858;4.472;2023-04-24T06:10:58;8.60;99.90
23715;DHT22;12036;50.858;4.472;2023-04-24T06:13:23;8.60;99.90
23715;DHT22;12036;50.858;4.472;2023-04-24T06:15:49;8.70;99.90
23715;DHT22;12036;50.858;4.472;2023-04-24T06:18:15;8.80;99.90
23715;DHT22;12036;50.858;4.472;2023-04-24T06:20:41;8.70;99.90
23715;DHT22;12036;50.858;4.472;2023-04-24T06:23:07;8.70;99.90
23715;DHT22;12036;50.858;4.472;2023-04-24T06:25:32;8.70;99.90
23715;DHT22;12036;50.858;4.472;2023-04-24T06:27:58;8.70;99.90
23715;DHT22;12036;50.858;4.472;2023-04-24T06:30:33;8.80;99.90
23715;DHT22;12036;50.858;4.472;2023-04-24T06:32:58;8.80;99.90
23715;DHT22;12036;50.858;4.472;2023-04-24T06:35:24;8.80;99.90
23715;DHT22;12036;50.858;4.472;2023-04-24T06:37:50;8.90;99.90
23715;DHT22;12036;50.858;4.472;2023-04-24T06:40:16;8.80;99.90
23715;DHT22;12036;50.858;4.472;2023-04-24T06:42:44;8.80;99.90
23715;DHT22;12036;50.858;4.472;2023-04-24T06:45:09;8.80;99.90
23715;DHT22;12036;50.858;4.472;2023-04-24T06:47:36;8.80;99.90
23715;DHT22;12036;50.858;4.472;2023-04-24T06:50:01;8.70;99.90
23715;DHT22;12036;50.858;4.472;2023-04-24T06:52:27;8.80;99.90
23715;DHT22;12036;50.858;4.472;2023-04-24T06:54:52;8.70;99.90
23715;DHT22;12036;50.858;4.472;2023-04-24T06:57:25;8.80;99.90
23715;DHT22;12036;50.858;4.472;2023-04-24T06:59:50;8.90;99.90
23715;DHT22;12036;50.858;4.472;2023-04-24T07:02:16;8.90;99.90
23715;DHT22;12036;50.858;4.472;2023-04-24T07:04:41;9.00;99.90
23715;DHT22;12036;50.858;4.472;2023-04-24T07:07:07;9.00;99.90
23715;DHT22;12036;50.858;4.472;2023-04-24T07:09:34;9.10;99.90
23715;DHT22;12036;50.858;4.472;2023-04-24T07:12:03;9.20;99.90
23715;DHT22;12036;50.858;4.472;2023-04-24T07:14:29;9.20;99.90
23715;DHT22;12036;50.858;4.472;2023-04-24T07:16:55;9.10;99.90
23715;DHT22;12036;50.858;4.472;2023-04-24T07:19:22;9.20;99.90
23715;DHT22;12036;50.858;4.472;2023-04-24T07:21:47;9.20;99.90
23715;DHT22;12036;50.858;4.472;2023-04-24T07:24:13;9.30;99.90
23715;DHT22;12036;50.858;4.472;2023-04-24T07:26:39;9.30;99.90
23715;DHT22;12036;50.858;4.472;2023-04-24T07:29:05;9.30;99.90
23715;DHT22;12036;50.858;4.472;2023-04-24T07:31:31;9.30;99.90
23715;DHT22;12036;50.858;4.472;2023-04-24T07:33:57;9.40;99.90
23715;DHT22;12036;50.858;4.472;2023-04-24T07:36:24;9.50;99.90
23715;DHT22;12036;50.858;4.472;2023-04-24T07:38:51;9.50;99.90
23715;DHT22;12036;50.858;4.472;2023-04-24T07:41:17;9.60;99.90
23715;DHT22;12036;50.858;4.472;2023-04-24T07:43:42;9.50;99.90
23715;DHT22;12036;50.858;4.472;2023-04-24T07:46:08;9.60;99.90
23715;DHT22;12036;50.858;4.472;2023-04-24T07:48:35;9.70;99.90
23715;DHT22;12036;50.858;4.472;2023-04-24T07:51:00;9.80;99.90
23715;DHT22;12036;50.858;4.472;2023-04-24T07:53:26;9.90;99.90
23715;DHT22;12036;50.858;4.472;2023-04-24T07:55:52;10.10;99.90
23715;DHT22;12036;50.858;4.472;2023-04-24T07:58:19;10.20;99.90
23715;DHT22;12036;50.858;4.472;2023-04-24T08:00:45;10.40;99.90
23715;DHT22;12036;50.858;4.472;2023-04-24T08:03:10;10.60;99.90
23715;DHT22;12036;50.858;4.472;2023-04-24T08:05:38;10.70;99.90
23715;DHT22;12036;50.858;4.472;2023-04-24T08:08:03;10.50;99.90
23715;DHT22;12036;50.858;4.472;2023-04-24T08:10:29;10.50;99.90
23715;DHT22;12036;50.858;4.472;2023-04-24T08:12:54;10.90;99.90
23715;DHT22;12036;50.858;4.472;2023-04-24T08:15:21;11.10;99.90
23715;DHT22;12036;50.858;4.472;2023-04-24T08:17:46;11.20;99.90
23715;DHT22;12036;50.858;4.472;2023-04-24T08:20:12;11.10;99.90
23715;DHT22;12036;50.858;4.472;2023-04-24T08:22:42;11.00;99.90
23715;DHT22;12036;50.858;4.472;2023-04-24T08:25:09;11.00;99.90
23715;DHT22;12036;50.858;4.472;2023-04-24T08:27:35;11.00;99.90
23715;DHT22;12036;50.858;4.472;2023-04-24T08:30:03;11.00;99.90
23715;DHT22;12036;50.858;4.472;2023-04-24T08:32:28;11.00;99.90
23715;DHT22;12036;50.858;4.472;2023-04-24T08:34:55;11.10;99.90
23715;DHT22;12036;50.858;4.472;2023-04-24T08:37:26;11.10;99.90
23715;DHT22;12036;50.858;4.472;2023-04-24T08:39:52;11.10;99.90
23715;DHT22;12036;50.858;4.472;2023-04-24T08:42:19;11.40;99.90
23715;DHT22;12036;50.858;4.472;2023-04-24T08:44:45;12.10;99.90
23715;DHT22;12036;50.858;4.472;2023-04-24T08:47:11;12.60;99.90
23715;DHT22;12036;50.858;4.472;2023-04-24T08:49:38;12.80;99.90
23715;DHT22;12036;50.858;4.472;2023-04-24T08:52:05;12.50;99.90
23715;DHT22;12036;50.858;4.472;2023-04-24T08:54:31;12.30;99.90
23715;DHT22;12036;50.858;4.472;2023-04-24T08:57:00;11.90;99.90
23715;DHT22;12036;50.858;4.472;2023-04-24T08:59:32;12.10;99.90
23715;DHT22;12036;50.858;4.472;2023-04-24T09:01:59;12.20;99.90
23715;DHT22;12036;50.858;4.472;2023-04-24T09:04:25;12.40;99.90
23715;DHT22;12036;50.858;4.472;2023-04-24T09:06:55;12.60;99.90
23715;DHT22;12036;50.858;4.472;2023-04-24T09:09:23;12.90;99.90
23715;DHT22;12036;50.858;4.472;2023-04-24T09:11:52;13.50;99.90
23715;DHT22;12036;50.858;4.472;2023-04-24T09:14:20;13.60;99.90
23715;DHT22;12036;50.858;4.472;2023-04-24T09:16:46;13.80;99.90
23715;DHT22;12036;50.858;4.472;2023-04-24T09:19:12;14.20;99.90
23715;DHT22;12036;50.858;4.472;2023-04-24T09:21:38;14.60;99.90
23715;DHT22;12036;50.858;4.472;2023-04-24T09:24:08;15.30;99.90
23715;DHT22;12036;50.858;4.472;2023-04-24T09:26:40;15.30;99.90
23715;DHT22;12036;50.858;4.472;2023-04-24T09:29:06;14.60;99.90
23715;DHT22;12036;50.858;4.472;2023-04-24T09:31:31;14.40;99.90
23715;DHT22;12036;50.858;4.472;2023-04-24T09:34:01;14.70;99.90
23715;DHT22;12036;50.858;4.472;2023-04-24T09:36:36;15.50;99.90
23715;DHT22;12036;50.858;4.472;2023-04-24T09:39:05;15.30;99.90
23715;DHT22;12036;50.858;4.472;2023-04-24T09:41:32;14.90;99.90
23715;DHT22;12036;50.858;4.472;2023-04-24T09:44:11;14.10;99.90
23715;DHT22;12036;50.858;4.472;2023-04-24T09:46:36;13.30;99.90
23715;DHT22;12036;50.858;4.472;2023-04-24T09:49:11;12.90;99.90
23715;DHT22;12036;50.858;4.472;2023-04-24T09:51:38;13.10;99.90
23715;DHT22;12036;50.858;4.472;2023-04-24T09:54:04;12.90;99.90
23715;DHT22;12036;50.858;4.472;2023-04-24T09:56:36;13.30;99.90
23715;DHT22;12036;50.858;4.472;2023-04-24T09:59:11;13.80;99.90
23715;DHT22;12036;50.858;4.472;2023-04-24T10:01:36;14.10;99.90
23715;DHT22;12036;50.858;4.472;2023-04-24T10:04:03;13.80;99.90
23715;DHT22;12036;50.858;4.472;2023-04-24T10:06:35;13.90;99.90
23715;DHT22;12036;50.858;4.472;2023-04-24T10:09:02;13.90;99.90
23715;DHT22;12036;50.858;4.472;2023-04-24T10:11:30;14.50;99.90
23715;DHT22;12036;50.858;4.472;2023-04-24T10:13:56;14.90;99.90
23715;DHT22;12036;50.858;4.472;2023-04-24T10:16:23;14.60;99.90
23715;DHT22;12036;50.858;4.472;2023-04-24T10:18:49;14.30;99.90
23715;DHT22;12036;50.858;4.472;2023-04-24T10:21:16;14.20;99.90
23715;DHT22;12036;50.858;4.472;2023-04-24T10:23:42;14.20;99.90
23715;DHT22;12036;50.858;4.472;2023-04-24T10:26:12;14.30;99.90
23715;DHT22;12036;50.858;4.472;2023-04-24T10:28:46;14.40;99.90
23715;DHT22;12036;50.858;4.472;2023-04-24T10:31:13;14.10;99.90
23715;DHT22;12036;50.858;4.472;2023-04-24T10:33:41;14.10;99.90
23715;DHT22;12036;50.858;4.472;2023-04-24T10:36:11;13.80;99.90
23715;DHT22;12036;50.858;4.472;2023-04-24T10:38:40;13.30;99.90
23715;DHT22;12036;50.858;4.472;2023-04-24T10:41:10;13.20;99.90
23715;DHT22;12036;50.858;4.472;2023-04-24T10:43:41;13.40;99.90
23715;DHT22;12036;50.858;4.472;2023-04-24T10:46:08;14.20;99.90
23715;DHT22;12036;50.858;4.472;2023-04-24T10:48:36;15.20;99.90
23715;DHT22;12036;50.858;4.472;2023-04-24T10:51:11;16.10;99.90
23715;DHT22;12036;50.858;4.472;2023-04-24T10:53:37;15.70;99.90
23715;DHT22;12036;50.858;4.472;2023-04-24T10:56:07;16.40;99.90
23715;DHT22;12036;50.858;4.472;2023-04-24T10:58:50;16.30;99.90
23715;DHT22;12036;50.858;4.472;2023-04-24T11:01:29;16.00;99.90
23715;DHT22;12036;50.858;4.472;2023-04-24T11:03:57;15.50;99.90
23715;DHT22;12036;50.858;4.472;2023-04-24T11:06:36;15.10;99.90
23715;DHT22;12036;50.858;4.472;2023-04-24T11:09:10;14.70;99.90
23715;DHT22;12036;50.858;4.472;2023-04-24T11:11:38;14.40;99.90
23715;DHT22;12036;50.858;4.472;2023-04-24T11:14:10;14.50;99.90
23715;DHT22;12036;50.858;4.472;2023-04-24T11:16:42;14.20;99.90
23715;DHT22;12036;50.858;4.472;2023-04-24T11:19:21;14.00;99.90
23715;DHT22;12036;50.858;4.472;2023-04-24T11:24:24;14.00;99.90
23715;DHT22;12036;50.858;4.472;2023-04-24T11:27:12;14.00;99.90
23715;DHT22;12036;50.858;4.472;2023-04-24T11:37:19;14.40;99.90
23715;DHT22;12036;50.858;4.472;2023-04-24T11:39:45;14.40;99.90
23715;DHT22;12036;50.858;4.472;2023-04-24T11:42:10;14.60;99.90
23715;DHT22;12036;50.858;4.472;2023-04-24T11:44:39;14.80;99.90
23715;DHT22;12036;50.858;4.472;2023-04-24T11:47:06;14.70;99.90
23715;DHT22;12036;50.858;4.472;2023-04-24T11:49:32;14.80;99.90
23715;DHT22;12036;50.858;4.472;2023-04-24T11:51:59;14.90;99.90
23715;DHT22;12036;50.858;4.472;2023-04-24T11:54:25;15.00;99.90
23715;DHT22;12036;50.858;4.472;2023-04-24T11:56:51;15.20;99.90
23715;DHT22;12036;50.858;4.472;2023-04-24T11:59:22;15.30;99.90
23715;DHT22;12036;50.858;4.472;2023-04-24T12:01:48;15.50;99.90
23715;DHT22;12036;50.858;4.472;2023-04-24T12:04:16;15.40;99.90
23715;DHT22;12036;50.858;4.472;2023-04-24T12:07:04;15.20;99.50
23715;DHT22;12036;50.858;4.472;2023-04-24T12:09:48;15.10;99.30
23715;DHT22;12036;50.858;4.472;2023-04-24T12:12:18;15.10;98.20
23715;DHT22;12036;50.858;4.472;2023-04-24T12:14:53;14.90;98.80
23715;DHT22;12036;50.858;4.472;2023-04-24T12:17:28;14.80;99.30
23715;DHT22;12036;50.858;4.472;2023-04-24T12:19:58;14.80;99.60
23715;DHT22;12036;50.858;4.472;2023-04-24T12:22:25;14.50;99.10
23715;DHT22;12036;50.858;4.472;2023-04-24T12:25:04;14.50;99.90
23715;DHT22;12036;50.858;4.472;2023-04-24T12:27:31;15.00;99.50
23715;DHT22;12036;50.858;4.472;2023-04-24T12:29:59;15.20;96.90
23715;DHT22;12036;50.858;4.472;2023-04-24T12:32:26;15.70;97.20
23715;DHT22;12036;50.858;4.472;2023-04-24T12:34:52;16.00;96.30
23715;DHT22;12036;50.858;4.472;2023-04-24T12:37:18;16.20;96.20
23715;DHT22;12036;50.858;4.472;2023-04-24T12:40:07;16.40;95.70
23715;DHT22;12036;50.858;4.472;2023-04-24T12:42:34;16.70;93.70
23715;DHT22;12036;50.858;4.472;2023-04-24T12:45:05;16.70;92.50
23715;DHT22;12036;50.858;4.472;2023-04-24T12:47:32;16.80;91.70
23715;DHT22;12036;50.858;4.472;2023-04-24T12:49:58;17.00;93.30
23715;DHT22;12036;50.858;4.472;2023-04-24T12:52:25;17.20;90.50
23715;DHT22;12036;50.858;4.472;2023-04-24T12:54:56;17.00;88.60
23715;DHT22;12036;50.858;4.472;2023-04-24T12:57:23;16.80;90.00
23715;DHT22;12036;50.858;4.472;2023-04-24T12:59:48;16.80;89.90
23715;DHT22;12036;50.858;4.472;2023-04-24T13:02:14;16.80;89.30
23715;DHT22;12036;50.858;4.472;2023-04-24T13:04:46;16.80;90.00
23715;DHT22;12036;50.858;4.472;2023-04-24T13:07:13;16.80;89.30
23715;DHT22;12036;50.858;4.472;2023-04-24T13:09:40;16.70;87.90
23715;DHT22;12036;50.858;4.472;2023-04-24T13:12:07;16.30;88.30
23715;DHT22;12036;50.858;4.472;2023-04-24T13:14:33;16.00;90.20
23715;DHT22;12036;50.858;4.472;2023-04-24T13:16:58;15.70;89.60
23715;DHT22;12036;50.858;4.472;2023-04-24T13:19:25;15.40;90.20
23715;DHT22;12036;50.858;4.472;2023-04-24T13:21:52;15.20;90.80
23715;DHT22;12036;50.858;4.472;2023-04-24T13:24:18;15.00;91.40
23715;DHT22;12036;50.858;4.472;2023-04-24T13:26:44;14.80;92.20
23715;DHT22;12036;50.858;4.472;2023-04-24T13:29:10;14.60;92.90
23715;DHT22;12036;50.858;4.472;2023-04-24T13:31:35;14.60;92.20
23715;DHT22;12036;50.858;4.472;2023-04-24T13:34:02;14.50;92.10
23715;DHT22;12036;50.858;4.472;2023-04-24T13:36:29;14.30;93.20
23715;DHT22;12036;50.858;4.472;2023-04-24T13:38:55;14.40;94.30
23715;DHT22;12036;50.858;4.472;2023-04-24T13:41:21;14.60;93.30
23715;DHT22;12036;50.858;4.472;2023-04-24T13:43:46;14.80;93.60
23715;DHT22;12036;50.858;4.472;2023-04-24T13:46:12;14.80;92.60
23715;DHT22;12036;50.858;4.472;2023-04-24T13:48:38;14.90;92.40
23715;DHT22;12036;50.858;4.472;2023-04-24T13:51:05;15.20;90.80
23715;DHT22;12036;50.858;4.472;2023-04-24T13:53:30;15.30;89.90
23715;DHT22;12036;50.858;4.472;2023-04-24T13:55:57;15.30;90.10
23715;DHT22;12036;50.858;4.472;2023-04-24T13:58:23;15.20;90.30
23715;DHT22;12036;50.858;4.472;2023-04-24T14:00:48;15.10;90.70
23715;DHT22;12036;50.858;4.472;2023-04-24T14:03:14;15.00;89.40
23715;DHT22;12036;50.858;4.472;2023-04-24T14:05:40;15.10;89.50
23715;DHT22;12036;50.858;4.472;2023-04-24T14:08:06;15.00;90.30
23715;DHT22;12036;50.858;4.472;2023-04-24T14:10:31;15.10;91.30
23715;DHT22;12036;50.858;4.472;2023-04-24T14:12:57;15.20;89.50
23715;DHT22;12036;50.858;4.472;2023-04-24T14:15:23;15.20;89.20
23715;DHT22;12036;50.858;4.472;2023-04-24T14:17:48;15.20;90.00
23715;DHT22;12036;50.858;4.472;2023-04-24T14:20:15;15.00;91.30
23715;DHT22;12036;50.858;4.472;2023-04-24T14:22:40;14.80;92.20
23715;DHT22;12036;50.858;4.472;2023-04-24T14:25:06;14.80;92.70
23715;DHT22;12036;50.858;4.472;2023-04-24T14:27:32;14.80;92.80
23715;DHT22;12036;50.858;4.472;2023-04-24T14:30:00;14.70;93.20
23715;DHT22;12036;50.858;4.472;2023-04-24T14:32:25;14.70;92.80
23715;DHT22;12036;50.858;4.472;2023-04-24T14:34:51;14.50;93.80
23715;DHT22;12036;50.858;4.472;2023-04-24T14:37:17;14.40;92.60
23715;DHT22;12036;50.858;4.472;2023-04-24T14:39:42;14.30;93.60
23715;DHT22;12036;50.858;4.472;2023-04-24T14:42:08;14.10;93.90
23715;DHT22;12036;50.858;4.472;2023-04-24T14:44:33;14.10;94.00
23715;DHT22;12036;50.858;4.472;2023-04-24T14:46:59;14.00;94.30
23715;DHT22;12036;50.858;4.472;2023-04-24T14:49:26;14.00;94.70
23715;DHT22;12036;50.858;4.472;2023-04-24T14:51:51;13.90;94.70
23715;DHT22;12036;50.858;4.472;2023-04-24T14:54:17;13.90;94.90
23715;DHT22;12036;50.858;4.472;2023-04-24T14:56:43;14.00;93.90
23715;DHT22;12036;50.858;4.472;2023-04-24T14:59:10;14.00;93.20
23715;DHT22;12036;50.858;4.472;2023-04-24T15:01:36;14.00;93.10
23715;DHT22;12036;50.858;4.472;2023-04-24T15:04:01;13.90;93.70
23715;DHT22;12036;50.858;4.472;2023-04-24T15:06:27;13.80;93.80
23715;DHT22;12036;50.858;4.472;2023-04-24T15:08:53;13.80;93.90
23715;DHT22;12036;50.858;4.472;2023-04-24T15:11:19;13.70;93.60
23715;DHT22;12036;50.858;4.472;2023-04-24T15:13:45;13.70;93.40
23715;DHT22;12036;50.858;4.472;2023-04-24T15:16:11;13.80;94.20
23715;DHT22;12036;50.858;4.472;2023-04-24T15:18:36;14.00;93.60
23715;DHT22;12036;50.858;4.472;2023-04-24T15:21:02;14.00;94.70
23715;DHT22;12036;50.858;4.472;2023-04-24T15:23:28;14.20;93.80
23715;DHT22;12036;50.858;4.472;2023-04-24T15:25:53;14.10;93.70
23715;DHT22;12036;50.858;4.472;2023-04-24T15:28:19;14.10;93.60
23715;DHT22;12036;50.858;4.472;2023-04-24T15:30:47;14.10;93.80
23715;DHT22;12036;50.858;4.472;2023-04-24T15:33:13;14.00;93.90
23715;DHT22;12036;50.858;4.472;2023-04-24T15:35:38;14.00;93.30
23715;DHT22;12036;50.858;4.472;2023-04-24T15:38:05;13.90;93.10
23715;DHT22;12036;50.858;4.472;2023-04-24T15:40:31;13.80;93.00
23715;DHT22;12036;50.858;4.472;2023-04-24T15:42:56;13.80;93.30
23715;DHT22;12036;50.858;4.472;2023-04-24T15:45:22;13.80;93.00